sensor_id;sensor_type;location;lat;lon;timestamp;temperature;humidity
3566;DHT22;1797;51.844;7.684;2022-12-07T00:00:38;4.80;99.90
3566;DHT22;1797;51.844;7.684;2022-12-07T00:03:04;4.80;99.90
3566;DHT22;1797;51.844;7.684;2022-12-07T00:05:30;4.80;99.90
3566;DHT22;1797;51.844;7.684;2022-12-07T00:07:55;4.90;99.90
3566;DHT22;1797;51.844;7.684;2022-12-07T00:10:21;4.90;99.90
3566;DHT22;1797;51.844;7.684;2022-12-07T00:12:47;4.80;99.90
3566;DHT22;1797;51.844;7.684;2022-12-07T00:15:12;4.80;99.90
3566;DHT22;1797;51.844;7.684;2022-12-07T00:17:38;4.90;99.90
3566;DHT22;1797;51.844;7.684;2022-12-07T00:20:04;4.90;99.90
3566;DHT22;1797;51.844;7.684;2022-12-07T00:22:30;4.90;99.90
3566;DHT22;1797;51.844;7.684;2022-12-07T00:24:55;4.90;99.90
3566;DHT22;1797;51.844;7.684;2022-12-07T00:27:21;4.80;99.90
3566;DHT22;1797;51.844;7.684;2022-12-07T00:29:46;4.80;99.90
3566;DHT22;1797;51.844;7.684;2022-12-07T00:32:12;4.80;99.90
3566;DHT22;1797;51.844;7.684;2022-12-07T00:34:38;4.80;99.90
3566;DHT22;1797;51.844;7.684;2022-12-07T00:37:03;4.80;99.90
3566;DHT22;1797;51.844;7.684;2022-12-07T00:39:29;4.80;99.90
3566;DHT22;1797;51.844;7.684;2022-12-07T00:41:54;4.80;99.90
3566;DHT22;1797;51.844;7.684;2022-12-07T00:44:20;4.90;99.90
3566;DHT22;1797;51.844;7.684;2022-12-07T00:46:45;4.80;99.90
3566;DHT22;1797;51.844;7.684;2022-12-07T00:49:11;4.80;99.90
3566;DHT22;1797;51.844;7.684;2022-12-07T00:51:37;4.80;99.90
3566;DHT22;1797;51.844;7.684;2022-12-07T00:54:03;4.80;99.90
3566;DHT22;1797;51.844;7.684;2022-12-07T00:56:29;4.80;99.90
3566;DHT22;1797;51.844;7.684;2022-12-07T00:58:57;4.80;99.90
3566;DHT22;1797;51.844;7.684;2022-12-07T01:01:24;4.80;99.90
3566;DHT22;1797;51.844;7.684;2022-12-07T01:03:50;4.80;99.90
3566;DHT22;1797;51.844;7.684;2022-12-07T01:06:18;4.80;99.90
3566;DHT22;1797;51.844;7.684;2022-12-07T01:08:44;4.80;99.90
3566;DHT22;1797;51.844;7.684;2022-12-07T01:11:16;4.80;99.90
3566;DHT22;1797;51.844;7.684;2022-12-07T01:13:43;4.80;99.90
3566;DHT22;1797;51.844;7.684;2022-12-07T01:16:12;4.70;99.90
3566;DHT22;1797;51.844;7.684;2022-12-07T01:18:38;4.70;99.90
3566;DHT22;1797;51.844;7.684;2022-12-07T01:21:11;4.70;99.90
3566;DHT22;1797;51.844;7.684;2022-12-07T01:23:37;4.70;99.90
3566;DHT22;1797;51.844;7.684;2022-12-07T01:26:06;4.70;99.90
3566;DHT22;1797;51.844;7.684;2022-12-07T01:28:32;4.60;99.90
3566;DHT22;1797;51.844;7.684;2022-12-07T01:31:07;4.60;99.90
3566;DHT22;1797;51.844;7.684;2022-12-07T01:33:35;4.60;99.90
3566;DHT22;1797;51.844;7.684;2022-12-07T01:36:06;4.60;99.90
3566;DHT22;1797;51.844;7.684;2022-12-07T01:38:33;4.50;99.90
3566;DHT22;1797;51.844;7.684;2022-12-07T01:41:00;4.60;99.90
3566;DHT22;1797;51.844;7.684;2022-12-07T01:43:28;4.50;99.90
3566;DHT22;1797;51.844;7.684;2022-12-07T01:45:54;4.50;99.90
3566;DHT22;1797;51.844;7.684;2022-12-07T01:48:30;4.40;99.90
3566;DHT22;1797;51.844;7.684;2022-12-07T01:50:57;4.40;99.90
3566;DHT22;1797;51.844;7.684;2022-12-07T01:53:28;4.40;99.90
3566;DHT22;1797;51.844;7.684;2022-12-07T01:55:56;4.40;99.90
3566;DHT22;1797;51.844;7.684;2022-12-07T01:58:22;4.40;99.90
3566;DHT22;1797;51.844;7.684;2022-12-07T02:00:48;4.30;99.90
3566;DHT22;1797;51.844;7.684;2022-12-07T02:03:36;4.30;99.90
3566;DHT22;1797;51.844;7.684;2022-12-07T02:06:03;4.20;99.90
3566;DHT22;1797;51.844;7.684;2022-12-07T02:08:29;4.20;99.90
3566;DHT22;1797;51.844;7.684;2022-12-07T02:10:55;4.20;99.90
3566;DHT22;1797;51.844;7.684;2022-12-07T02:13:29;4.10;99.90
3566;DHT22;1797;51.844;7.684;2022-12-07T02:19:10;4.20;99.90
3566;DHT22;1797;51.844;7.684;2022-12-07T02:29:58;4.10;99.90
3566;DHT22;1797;51.844;7.684;2022-12-07T02:32:27;4.00;99.90
3566;DHT22;1797;51.844;7.684;2022-12-07T02:34:58;4.00;99.90
3566;DHT22;1797;51.844;7.684;2022-12-07T02:40:05;3.90;99.90
3566;DHT22;1797;51.844;7.684;2022-12-07T02:42:40;3.80;99.90
3566;DHT22;1797;51.844;7.684;2022-12-07T02:45:08;3.80;99.90
3566;DHT22;1797;51.844;7.684;2022-12-07T02:47:36;3.70;99.90
3566;DHT22;1797;51.844;7.684;2022-12-07T02:50:04;3.70;99.90
3566;DHT22;1797;51.844;7.684;2022-12-07T02:52:30;3.70;99.90
3566;DHT22;1797;51.844;7.684;2022-12-07T02:54:56;3.70;99.90
3566;DHT22;1797;51.844;7.684;2022-12-07T03:00:11;3.60;99.90
3566;DHT22;1797;51.844;7.684;2022-12-07T03:02:51;3.50;99.90
3566;DHT22;1797;51.844;7.684;2022-12-07T03:18:48;3.40;99.90
3566;DHT22;1797;51.844;7.684;2022-12-07T03:21:19;3.40;99.90
3566;DHT22;1797;51.844;7.684;2022-12-07T03:23:50;3.30;99.90
3566;DHT22;1797;51.844;7.684;2022-12-07T03:26:18;3.30;99.90
3566;DHT22;1797;51.844;7.684;2022-12-07T03:28:49;3.30;99.90
3566;DHT22;1797;51.844;7.684;2022-12-07T03:31:33;3.30;99.90
3566;DHT22;1797;51.844;7.684;2022-12-07T03:34:11;3.30;99.90
3566;DHT22;1797;51.844;7.684;2022-12-07T03:36:58;3.30;99.90
3566;DHT22;1797;51.844;7.684;2022-12-07T03:42:30;3.20;99.90
3566;DHT22;1797;51.844;7.684;2022-12-07T03:44:56;3.20;99.90
3566;DHT22;1797;51.844;7.684;2022-12-07T03:47:29;3.20;99.90
3566;DHT22;1797;51.844;7.684;2022-12-07T03:50:29;3.20;99.90
3566;DHT22;1797;51.844;7.684;2022-12-07T03:52:58;3.10;99.90
3566;DHT22;1797;51.844;7.684;2022-12-07T03:55:35;3.10;99.90
3566;DHT22;1797;51.844;7.684;2022-12-07T03:58:05;3.10;99.90
3566;DHT22;1797;51.844;7.684;2022-12-07T04:00:32;3.10;99.90
3566;DHT22;1797;51.844;7.684;2022-12-07T04:02:58;3.10;99.90
3566;DHT22;1797;51.844;7.684;2022-12-07T04:05:24;3.10;99.90
3566;DHT22;1797;51.844;7.684;2022-12-07T04:07:50;3.10;99.90
3566;DHT22;1797;51.844;7.684;2022-12-07T04:10:16;3.10;99.90
3566;DHT22;1797;51.844;7.684;2022-12-07T04:12:41;3.00;99.90
3566;DHT22;1797;51.844;7.684;2022-12-07T04:15:08;3.00;99.90
3566;DHT22;1797;51.844;7.684;2022-12-07T04:17:34;3.00;99.90
3566;DHT22;1797;51.844;7.684;2022-12-07T04:19:59;3.00;99.90
3566;DHT22;1797;51.844;7.684;2022-12-07T04:22:25;3.10;99.90
3566;DHT22;1797;51.844;7.684;2022-12-07T04:24:50;3.10;99.90
3566;DHT22;1797;51.844;7.684;2022-12-07T04:27:16;3.10;99.90
3566;DHT22;1797;51.844;7.684;2022-12-07T04:29:42;3.10;99.90
3566;DHT22;1797;51.844;7.684;2022-12-07T04:32:07;3.10;99.90
3566;DHT22;1797;51.844;7.684;2022-12-07T04:34:33;3.10;99.90
3566;DHT22;1797;51.844;7.684;2022-12-07T04:36:58;3.10;99.90
3566;DHT22;1797;51.844;7.684;2022-12-07T04:39:30;3.10;99.90
3566;DHT22;1797;51.844;7.684;2022-12-07T04:41:56;3.10;99.90
3566;DHT22;1797;51.844;7.684;2022-12-07T04:44:24;3.10;99.90
3566;DHT22;1797;51.844;7.684;2022-12-07T04:46:50;3.10;99.90
3566;DHT22;1797;51.844;7.684;2022-12-07T04:49:17;3.10;99.90
3566;DHT22;1797;51.844;7.684;2022-12-07T04:51:43;3.00;99.90
3566;DHT22;1797;51.844;7.684;2022-12-07T04:54:09;3.00;99.90
3566;DHT22;1797;51.844;7.684;2022-12-07T04:56:35;3.00;99.90
3566;DHT22;1797;51.844;7.684;2022-12-07T04:59:01;3.00;99.90
3566;DHT22;1797;51.844;7.684;2022-12-07T05:01:27;3.00;99.90
3566;DHT22;1797;51.844;7.684;2022-12-07T05:03:53;2.90;99.90
3566;DHT22;1797;51.844;7.684;2022-12-07T05:06:19;2.90;99.90
3566;DHT22;1797;51.844;7.684;2022-12-07T05:08:44;2.90;99.90
3566;DHT22;1797;51.844;7.684;2022-12-07T05:11:11;2.90;99.90
3566;DHT22;1797;51.844;7.684;2022-12-07T05:14:00;2.90;99.90
3566;DHT22;1797;51.844;7.684;2022-12-07T05:16:26;2.90;99.90
3566;DHT22;1797;51.844;7.684;2022-12-07T05:18:52;2.80;99.90
3566;DHT22;1797;51.844;7.684;2022-12-07T05:21:18;2.80;99.90
3566;DHT22;1797;51.844;7.684;2022-12-07T05:23:43;2.80;99.90
3566;DHT22;1797;51.844;7.684;2022-12-07T05:26:09;2.70;99.90
3566;DHT22;1797;51.844;7.684;2022-12-07T05:28:35;2.60;99.90
3566;DHT22;1797;51.844;7.684;2022-12-07T05:31:00;2.60;99.90
3566;DHT22;1797;51.844;7.684;2022-12-07T05:33:26;2.60;99.90
3566;DHT22;1797;51.844;7.684;2022-12-07T05:35:51;2.60;99.90
3566;DHT22;1797;51.844;7.684;2022-12-07T05:38:17;2.70;99.90
3566;DHT22;1797;51.844;7.684;2022-12-07T05:40:43;2.70;99.90
3566;DHT22;1797;51.844;7.684;2022-12-07T05:43:08;2.70;99.90
3566;DHT22;1797;51.844;7.684;2022-12-07T05:45:34;2.70;99.90
3566;DHT22;1797;51.844;7.684;2022-12-07T05:47:59;2.70;99.90
3566;DHT22;1797;51.844;7.684;2022-12-07T05:50:25;2.70;99.90
3566;DHT22;1797;51.844;7.684;2022-12-07T05:52:51;2.70;99.90
3566;DHT22;1797;51.844;7.684;2022-12-07T05:55:16;2.70;99.90
3566;DHT22;1797;51.844;7.684;2022-12-07T05:57:42;2.70;99.90
3566;DHT22;1797;51.844;7.684;2022-12-07T06:00:27;2.70;99.90
3566;DHT22;1797;51.844;7.684;2022-12-07T06:02:53;2.70;99.90
3566;DHT22;1797;51.844;7.684;2022-12-07T06:05:18;2.60;99.90
3566;DHT22;1797;51.844;7.684;2022-12-07T06:07:44;2.60;99.90
3566;DHT22;1797;51.844;7.684;2022-12-07T06:10:10;2.60;99.90
3566;DHT22;1797;51.844;7.684;2022-12-07T06:12:35;2.50;99.90
3566;DHT22;1797;51.844;7.684;2022-12-07T06:15:03;2.50;99.90
3566;DHT22;1797;51.844;7.684;2022-12-07T06:17:29;2.50;99.90
3566;DHT22;1797;51.844;7.684;2022-12-07T06:19:54;2.50;99.90
3566;DHT22;1797;51.844;7.684;2022-12-07T06:22:20;2.50;99.90
3566;DHT22;1797;51.844;7.684;2022-12-07T06:24:46;2.50;99.90
3566;DHT22;1797;51.844;7.684;2022-12-07T06:27:12;2.50;99.90
3566;DHT22;1797;51.844;7.684;2022-12-07T06:29:37;2.50;99.90
3566;DHT22;1797;51.844;7.684;2022-12-07T06:32:03;2.50;99.90
3566;DHT22;1797;51.844;7.684;2022-12-07T06:34:30;2.50;99.90
3566;DHT22;1797;51.844;7.684;2022-12-07T06:36:55;2.60;99.90
3566;DHT22;1797;51.844;7.684;2022-12-07T06:39:23;2.50;99.90
3566;DHT22;1797;51.844;7.684;2022-12-07T06:41:49;2.40;99.90
3566;DHT22;1797;51.844;7.684;2022-12-07T06:44:17;2.40;99.90
3566;DHT22;1797;51.844;7.684;2022-12-07T06:46:42;2.40;99.90
3566;DHT22;1797;51.844;7.684;2022-12-07T06:49:08;2.30;99.90
3566;DHT22;1797;51.844;7.684;2022-12-07T06:51:34;2.30;99.90
3566;DHT22;1797;51.844;7.684;2022-12-07T06:54:02;2.40;99.90
3566;DHT22;1797;51.844;7.684;2022-12-07T06:56:29;2.30;99.90
3566;DHT22;1797;51.844;7.684;2022-12-07T06:58:54;2.30;99.90
3566;DHT22;1797;51.844;7.684;2022-12-07T07:01:20;2.30;99.90
3566;DHT22;1797;51.844;7.684;2022-12-07T07:03:46;2.20;99.90
3566;DHT22;1797;51.844;7.684;2022-12-07T07:06:13;2.10;99.90
3566;DHT22;1797;51.844;7.684;2022-12-07T07:08:39;2.10;99.90
3566;DHT22;1797;51.844;7.684;2022-12-07T07:11:06;2.10;99.90
3566;DHT22;1797;51.844;7.684;2022-12-07T07:13:32;2.00;99.90
3566;DHT22;1797;51.844;7.684;2022-12-07T07:15:58;2.00;99.90
3566;DHT22;1797;51.844;7.684;2022-12-07T07:18:24;1.90;99.90
3566;DHT22;1797;51.844;7.684;2022-12-07T07:20:51;1.90;99.90
3566;DHT22;1797;51.844;7.684;2022-12-07T07:23:17;1.90;99.90
3566;DHT22;1797;51.844;7.684;2022-12-07T07:25:42;1.90;99.90
3566;DHT22;1797;51.844;7.684;2022-12-07T07:28:08;1.90;99.90
3566;DHT22;1797;51.844;7.684;2022-12-07T07:30:33;1.90;99.90
3566;DHT22;1797;51.844;7.684;2022-12-07T07:33:03;2.00;99.90
3566;DHT22;1797;51.844;7.684;2022-12-07T07:35:30;2.00;99.90
3566;DHT22;1797;51.844;7.684;2022-12-07T07:37:56;2.00;99.90
3566;DHT22;1797;51.844;7.684;2022-12-07T07:40:22;2.00;99.90
3566;DHT22;1797;51.844;7.684;2022-12-07T07:42:52;2.00;99.90
3566;DHT22;1797;51.844;7.684;2022-12-07T07:45:19;2.00;99.90
3566;DHT22;1797;51.844;7.684;2022-12-07T07:47:44;2.00;99.90
3566;DHT22;1797;51.844;7.684;2022-12-07T07:50:10;2.10;99.90
3566;DHT22;1797;51.844;7.684;2022-12-07T07:52:36;2.10;99.90
3566;DHT22;1797;51.844;7.684;2022-12-07T07:55:02;2.10;99.90
3566;DHT22;1797;51.844;7.684;2022-12-07T07:57:28;2.20;99.90
3566;DHT22;1797;51.844;7.684;2022-12-07T07:59:53;2.20;99.90
3566;DHT22;1797;51.844;7.684;2022-12-07T08:02:20;2.20;99.90
3566;DHT22;1797;51.844;7.684;2022-12-07T08:04:46;2.30;99.90
3566;DHT22;1797;51.844;7.684;2022-12-07T08:07:12;2.30;99.90
3566;DHT22;1797;51.844;7.684;2022-12-07T08:09:38;2.30;99.90
3566;DHT22;1797;51.844;7.684;2022-12-07T08:12:04;2.30;99.90
3566;DHT22;1797;51.844;7.684;2022-12-07T08:14:30;2.40;99.90
3566;DHT22;1797;51.844;7.684;2022-12-07T08:16:56;2.50;99.90
3566;DHT22;1797;51.844;7.684;2022-12-07T08:19:21;2.40;99.90
3566;DHT22;1797;51.844;7.684;2022-12-07T08:21:47;2.50;99.90
3566;DHT22;1797;51.844;7.684;2022-12-07T08:24:13;2.40;99.90
3566;DHT22;1797;51.844;7.684;2022-12-07T08:26:40;2.40;99.90
3566;DHT22;1797;51.844;7.684;2022-12-07T08:29:05;2.40;99.90
3566;DHT22;1797;51.844;7.684;2022-12-07T08:31:31;2.50;99.90
3566;DHT22;1797;51.844;7.684;2022-12-07T08:33:57;2.30;99.90
3566;DHT22;1797;51.844;7.684;2022-12-07T08:36:23;2.30;99.90
3566;DHT22;1797;51.844;7.684;2022-12-07T08:38:49;2.20;99.90
3566;DHT22;1797;51.844;7.684;2022-12-07T08:41:15;2.20;99.90
3566;DHT22;1797;51.844;7.684;2022-12-07T08:43:41;2.30;99.90
3566;DHT22;1797;51.844;7.684;2022-12-07T08:46:13;2.30;99.90
3566;DHT22;1797;51.844;7.684;2022-12-07T08:48:45;2.30;99.90
3566;DHT22;1797;51.844;7.684;2022-12-07T08:51:12;2.30;99.90
3566;DHT22;1797;51.844;7.684;2022-12-07T08:53:38;2.40;99.90
3566;DHT22;1797;51.844;7.684;2022-12-07T08:56:06;2.50;99.90
3566;DHT22;1797;51.844;7.684;2022-12-07T08:58:33;2.50;99.90
3566;DHT22;1797;51.844;7.684;2022-12-07T09:00:59;2.60;99.90
3566;DHT22;1797;51.844;7.684;2022-12-07T09:03:24;2.60;99.90
3566;DHT22;1797;51.844;7.684;2022-12-07T09:05:50;2.70;99.90
3566;DHT22;1797;51.844;7.684;2022-12-07T09:08:16;2.80;99.90
3566;DHT22;1797;51.844;7.684;2022-12-07T09:10:41;2.80;99.90
3566;DHT22;1797;51.844;7.684;2022-12-07T09:13:07;2.90;99.90
3566;DHT22;1797;51.844;7.684;2022-12-07T09:15:33;3.00;99.90
3566;DHT22;1797;51.844;7.684;2022-12-07T09:17:58;3.10;99.90
3566;DHT22;1797;51.844;7.684;2022-12-07T09:20:24;3.20;99.90
3566;DHT22;1797;51.844;7.684;2022-12-07T09:22:49;3.30;99.90
3566;DHT22;1797;51.844;7.684;2022-12-07T09:25:15;3.30;99.90
3566;DHT22;1797;51.844;7.684;2022-12-07T09:27:41;3.40;99.90
3566;DHT22;1797;51.844;7.684;2022-12-07T09:30:08;3.50;99.90
3566;DHT22;1797;51.844;7.684;2022-12-07T09:32:33;3.50;99.90
3566;DHT22;1797;51.844;7.684;2022-12-07T09:34:59;3.60;99.90
3566;DHT22;1797;51.844;7.684;2022-12-07T09:37:25;3.60;99.90
3566;DHT22;1797;51.844;7.684;2022-12-07T09:39:50;3.50;99.90
3566;DHT22;1797;51.844;7.684;2022-12-07T09:42:37;3.60;99.90
3566;DHT22;1797;51.844;7.684;2022-12-07T09:45:07;3.50;99.90
3566;DHT22;1797;51.844;7.684;2022-12-07T09:47:37;3.40;99.90
3566;DHT22;1797;51.844;7.684;2022-12-07T09:50:13;3.40;99.90
3566;DHT22;1797;51.844;7.684;2022-12-07T09:52:39;3.40;99.90
3566;DHT22;1797;51.844;7.684;2022-12-07T09:55:19;3.50;99.90
3566;DHT22;1797;51.844;7.684;2022-12-07T09:57:48;3.50;99.90
3566;DHT22;1797;51.844;7.684;2022-12-07T10:00:16;3.60;99.90
3566;DHT22;1797;51.844;7.684;2022-12-07T10:03:00;3.60;99.90
3566;DHT22;1797;51.844;7.684;2022-12-07T10:07:57;3.90;99.90
3566;DHT22;1797;51.844;7.684;2022-12-07T10:10:25;3.90;99.90
3566;DHT22;1797;51.844;7.684;2022-12-07T10:13:01;3.90;99.90
3566;DHT22;1797;51.844;7.684;2022-12-07T10:15:54;3.80;99.90
3566;DHT22;1797;51.844;7.684;2022-12-07T10:21:18;3.80;99.90
3566;DHT22;1797;51.844;7.684;2022-12-07T10:26:32;4.10;99.90
3566;DHT22;1797;51.844;7.684;2022-12-07T10:31:39;4.60;99.90
3566;DHT22;1797;51.844;7.684;2022-12-07T10:34:31;4.80;99.90
3566;DHT22;1797;51.844;7.684;2022-12-07T10:37:16;5.00;99.90
3566;DHT22;1797;51.844;7.684;2022-12-07T10:44:48;5.00;99.90
3566;DHT22;1797;51.844;7.684;2022-12-07T10:47:35;5.00;99.90
3566;DHT22;1797;51.844;7.684;2022-12-07T10:56:24;4.80;99.90
3566;DHT22;1797;51.844;7.684;2022-12-07T11:05:02;4.70;99.90
3566;DHT22;1797;51.844;7.684;2022-12-07T11:13:23;5.20;99.90
3566;DHT22;1797;51.844;7.684;2022-12-07T11:16:07;5.40;99.90
3566;DHT22;1797;51.844;7.684;2022-12-07T11:18:51;5.60;99.90
3566;DHT22;1797;51.844;7.684;2022-12-07T11:21:30;5.50;99.90
3566;DHT22;1797;51.844;7.684;2022-12-07T11:24:18;5.40;99.90
3566;DHT22;1797;51.844;7.684;2022-12-07T11:30:14;5.10;99.90
3566;DHT22;1797;51.844;7.684;2022-12-07T11:38:42;5.20;99.90
3566;DHT22;1797;51.844;7.684;2022-12-07T11:41:09;5.30;99.90
3566;DHT22;1797;51.844;7.684;2022-12-07T11:44:02;5.40;99.90
3566;DHT22;1797;51.844;7.684;2022-12-07T11:49:16;5.30;99.90
3566;DHT22;1797;51.844;7.684;2022-12-07T11:51:47;5.30;99.90
3566;DHT22;1797;51.844;7.684;2022-12-07T11:54:21;5.20;99.90
3566;DHT22;1797;51.844;7.684;2022-12-07T11:56:50;5.10;99.90
3566;DHT22;1797;51.844;7.684;2022-12-07T11:59:25;5.10;99.90
3566;DHT22;1797;51.844;7.684;2022-12-07T12:01:57;5.10;99.90
3566;DHT22;1797;51.844;7.684;2022-12-07T12:04:38;5.00;99.90
3566;DHT22;1797;51.844;7.684;2022-12-07T12:07:07;5.00;99.90
3566;DHT22;1797;51.844;7.684;2022-12-07T12:09:49;4.90;99.90
3566;DHT22;1797;51.844;7.684;2022-12-07T12:20:44;5.50;99.90
3566;DHT22;1797;51.844;7.684;2022-12-07T12:23:19;5.50;99.90
3566;DHT22;1797;51.844;7.684;2022-12-07T12:25:57;5.40;99.90
3566;DHT22;1797;51.844;7.684;2022-12-07T12:33:33;5.40;99.90
3566;DHT22;1797;51.844;7.684;2022-12-07T12:46:55;5.70;99.90
3566;DHT22;1797;51.844;7.684;2022-12-07T12:51:55;5.70;99.90
3566;DHT22;1797;51.844;7.684;2022-12-07T12:54:27;5.70;99.90
3566;DHT22;1797;51.844;7.684;2022-12-07T13:23:31;5.30;99.90
3566;DHT22;1797;51.844;7.684;2022-12-07T13:31:52;5.20;99.90
3566;DHT22;1797;51.844;7.684;2022-12-07T13:37:01;5.10;99.90
3566;DHT22;1797;51.844;7.684;2022-12-07T13:39:27;5.00;99.90
3566;DHT22;1797;51.844;7.684;2022-12-07T13:41:57;5.10;99.90
3566;DHT22;1797;51.844;7.684;2022-12-07T13:44:25;5.00;99.90
3566;DHT22;1797;51.844;7.684;2022-12-07T13:46:56;5.10;99.90
3566;DHT22;1797;51.844;7.684;2022-12-07T13:49:28;5.10;99.90
3566;DHT22;1797;51.844;7.684;2022-12-07T13:51:54;5.10;99.90
3566;DHT22;1797;51.844;7.684;2022-12-07T13:54:21;5.10;99.90
3566;DHT22;1797;51.844;7.684;2022-12-07T13:56:52;5.10;99.90
3566;DHT22;1797;51.844;7.684;2022-12-07T13:59:24;5.10;99.90
3566;DHT22;1797;51.844;7.684;2022-12-07T14:01:52;5.00;99.90
3566;DHT22;1797;51.844;7.684;2022-12-07T14:06:55;5.10;99.90
3566;DHT22;1797;51.844;7.684;2022-12-07T14:09:23;5.20;99.90
3566;DHT22;1797;51.844;7.684;2022-12-07T14:11:51;5.20;99.90
3566;DHT22;1797;51.844;7.684;2022-12-07T14:14:29;5.30;99.90
3566;DHT22;1797;51.844;7.684;2022-12-07T14:17:01;5.30;99.90
3566;DHT22;1797;51.844;7.684;2022-12-07T14:19:43;5.20;99.90
3566;DHT22;1797;51.844;7.684;2022-12-07T14:22:23;5.30;99.90
3566;DHT22;1797;51.844;7.684;2022-12-07T14:24:49;5.30;99.90
3566;DHT22;1797;51.844;7.684;2022-12-07T14:27:20;5.30;99.90
3566;DHT22;1797;51.844;7.684;2022-12-07T14:29:47;5.30;99.90
3566;DHT22;1797;51.844;7.684;2022-12-07T14:34:56;5.40;99.90
3566;DHT22;1797;51.844;7.684;2022-12-07T14:37:22;5.40;99.90
3566;DHT22;1797;51.844;7.684;2022-12-07T14:39:47;5.40;99.90
3566;DHT22;1797;51.844;7.684;2022-12-07T14:42:13;5.40;99.90
3566;DHT22;1797;51.844;7.684;2022-12-07T14:44:39;5.40;99.90
3566;DHT22;1797;51.844;7.684;2022-12-07T14:47:04;5.40;99.90
3566;DHT22;1797;51.844;7.684;2022-12-07T14:49:30;5.40;99.90
3566;DHT22;1797;51.844;7.684;2022-12-07T14:51:55;5.40;99.90
3566;DHT22;1797;51.844;7.684;2022-12-07T14:54:25;5.40;99.90
3566;DHT22;1797;51.844;7.684;2022-12-07T14:56:52;5.30;99.90
3566;DHT22;1797;51.844;7.684;2022-12-07T14:59:19;5.30;99.90
3566;DHT22;1797;51.844;7.684;2022-12-07T15:01:45;5.30;99.90
3566;DHT22;1797;51.844;7.684;2022-12-07T15:04:10;5.20;99.90
3566;DHT22;1797;51.844;7.684;2022-12-07T15:06:36;5.10;99.90
3566;DHT22;1797;51.844;7.684;2022-12-07T15:09:02;5.00;99.90
3566;DHT22;1797;51.844;7.684;2022-12-07T15:11:28;4.80;99.90
3566;DHT22;1797;51.844;7.684;2022-12-07T15:13:54;4.70;99.90
3566;DHT22;1797;51.844;7.684;2022-12-07T15:16:39;4.70;99.90
3566;DHT22;1797;51.844;7.684;2022-12-07T15:19:09;4.70;99.90
3566;DHT22;1797;51.844;7.684;2022-12-07T15:21:35;4.70;99.90
3566;DHT22;1797;51.844;7.684;2022-12-07T15:24:01;4.70;99.90
3566;DHT22;1797;51.844;7.684;2022-12-07T15:26:26;4.60;99.90
3566;DHT22;1797;51.844;7.684;2022-12-07T15:28:53;4.60;99.90
3566;DHT22;1797;51.844;7.684;2022-12-07T15:31:19;4.60;99.90
3566;DHT22;1797;51.844;7.684;2022-12-07T15:33:45;4.60;99.90
3566;DHT22;1797;51.844;7.684;2022-12-07T15:36:24;4.60;99.90
3566;DHT22;1797;51.844;7.684;2022-12-07T15:38:50;4.60;99.90
3566;DHT22;1797;51.844;7.684;2022-12-07T15:41:17;4.50;99.90
3566;DHT22;1797;51.844;7.684;2022-12-07T15:43:43;4.60;99.90
3566;DHT22;1797;51.844;7.684;2022-12-07T15:46:38;4.50;99.90
3566;DHT22;1797;51.844;7.684;2022-12-07T15:49:09;4.50;99.90
3566;DHT22;1797;51.844;7.684;2022-12-07T15:51:35;4.50;99.90
3566;DHT22;1797;51.844;7.684;2022-12-07T15:54:01;4.50;99.90
3566;DHT22;1797;51.844;7.684;2022-12-07T15:56:26;4.40;99.90
3566;DHT22;1797;51.844;7.684;2022-12-07T15:58:52;4.40;99.90
3566;DHT22;1797;51.844;7.684;2022-12-07T16:01:28;4.30;99.90
3566;DHT22;1797;51.844;7.684;2022-12-07T16:03:53;4.30;99.90
3566;DHT22;1797;51.844;7.684;2022-12-07T16:06:19;4.30;99.90
3566;DHT22;1797;51.844;7.684;2022-12-07T16:08:45;4.30;99.90
3566;DHT22;1797;51.844;7.684;2022-12-07T16:11:11;4.30;99.90
3566;DHT22;1797;51.844;7.684;2022-12-07T16:13:37;4.30;99.90
3566;DHT22;1797;51.844;7.684;2022-12-07T16:16:12;4.20;99.90
3566;DHT22;1797;51.844;7.684;2022-12-07T16:18:38;4.20;99.90
3566;DHT22;1797;51.844;7.684;2022-12-07T16:21:04;4.20;99.90
3566;DHT22;1797;51.844;7.684;2022-12-07T16:23:30;4.30;99.90
3566;DHT22;1797;51.844;7.684;2022-12-07T16:26:04;4.30;99.90
3566;DHT22;1797;51.844;7.684;2022-12-07T16:28:30;4.30;99.90
3566;DHT22;1797;51.844;7.684;2022-12-07T16:31:14;4.30;99.90
3566;DHT22;1797;51.844;7.684;2022-12-07T16:33:41;4.20;99.90
3566;DHT22;1797;51.844;7.684;2022-12-07T16:36:09;4.20;99.90
3566;DHT22;1797;51.844;7.684;2022-12-07T16:38:35;4.20;99.90
3566;DHT22;1797;51.844;7.684;2022-12-07T16:41:01;4.20;99.90
3566;DHT22;1797;51.844;7.684;2022-12-07T16:43:27;4.20;99.90
3566;DHT22;1797;51.844;7.684;2022-12-07T16:45:53;4.10;99.90
3566;DHT22;1797;51.844;7.684;2022-12-07T16:48:18;4.10;99.90
3566;DHT22;1797;51.844;7.684;2022-12-07T16:50:44;4.10;99.90
3566;DHT22;1797;51.844;7.684;2022-12-07T16:53:11;4.10;99.90
3566;DHT22;1797;51.844;7.684;2022-12-07T16:55:38;4.10;99.90
3566;DHT22;1797;51.844;7.684;2022-12-07T16:58:06;4.00;99.90
3566;DHT22;1797;51.844;7.684;2022-12-07T17:00:31;4.10;99.90
3566;DHT22;1797;51.844;7.684;2022-12-07T17:02:57;4.10;99.90
3566;DHT22;1797;51.844;7.684;2022-12-07T17:05:23;4.10;99.90
3566;DHT22;1797;51.844;7.684;2022-12-07T17:07:50;4.20;99.90
3566;DHT22;1797;51.844;7.684;2022-12-07T17:10:16;4.20;99.90
3566;DHT22;1797;51.844;7.684;2022-12-07T17:12:41;4.10;99.90
3566;DHT22;1797;51.844;7.684;2022-12-07T17:15:08;4.10;99.90
3566;DHT22;1797;51.844;7.684;2022-12-07T17:17:57;4.10;99.90
3566;DHT22;1797;51.844;7.684;2022-12-07T17:20:25;4.10;99.90
3566;DHT22;1797;51.844;7.684;2022-12-07T17:22:51;4.10;99.90
3566;DHT22;1797;51.844;7.684;2022-12-07T17:25:17;4.10;99.90
3566;DHT22;1797;51.844;7.684;2022-12-07T17:27:43;4.00;99.90
3566;DHT22;1797;51.844;7.684;2022-12-07T17:30:09;4.10;99.90
3566;DHT22;1797;51.844;7.684;2022-12-07T17:32:35;4.00;99.90
3566;DHT22;1797;51.844;7.684;2022-12-07T17:35:00;4.00;99.90
3566;DHT22;1797;51.844;7.684;2022-12-07T17:37:26;4.10;99.90
3566;DHT22;1797;51.844;7.684;2022-12-07T17:39:52;4.10;99.90
3566;DHT22;1797;51.844;7.684;2022-12-07T17:42:21;4.10;99.90
3566;DHT22;1797;51.844;7.684;2022-12-07T17:45:09;4.10;99.90
3566;DHT22;1797;51.844;7.684;2022-12-07T17:47:36;4.10;99.90
3566;DHT22;1797;51.844;7.684;2022-12-07T17:50:04;4.10;99.90
3566;DHT22;1797;51.844;7.684;2022-12-07T17:52:30;4.00;99.90
3566;DHT22;1797;51.844;7.684;2022-12-07T17:55:14;4.10;99.90
3566;DHT22;1797;51.844;7.684;2022-12-07T17:57:40;4.20;99.90
3566;DHT22;1797;51.844;7.684;2022-12-07T18:00:06;4.20;99.90
3566;DHT22;1797;51.844;7.684;2022-12-07T18:02:33;4.20;99.90
3566;DHT22;1797;51.844;7.684;2022-12-07T18:04:58;4.20;99.90
3566;DHT22;1797;51.844;7.684;2022-12-07T18:07:24;4.20;99.90
3566;DHT22;1797;51.844;7.684;2022-12-07T18:09:49;4.20;99.90
3566;DHT22;1797;51.844;7.684;2022-12-07T18:12:15;4.20;99.90
3566;DHT22;1797;51.844;7.684;2022-12-07T18:14:40;4.20;99.90
3566;DHT22;1797;51.844;7.684;2022-12-07T18:17:06;4.20;99.90
3566;DHT22;1797;51.844;7.684;2022-12-07T18:19:32;4.20;99.90
3566;DHT22;1797;51.844;7.684;2022-12-07T18:22:02;4.20;99.90
3566;DHT22;1797;51.844;7.684;2022-12-07T18:24:28;4.20;99.90
3566;DHT22;1797;51.844;7.684;2022-12-07T18:26:53;4.20;99.90
3566;DHT22;1797;51.844;7.684;2022-12-07T18:29:19;4.20;99.90
3566;DHT22;1797;51.844;7.684;2022-12-07T18:31:46;4.20;99.90
3566;DHT22;1797;51.844;7.684;2022-12-07T18:34:14;4.10;99.90
3566;DHT22;1797;51.844;7.684;2022-12-07T18:36:41;4.10;99.90
3566;DHT22;1797;51.844;7.684;2022-12-07T18:39:07;4.10;99.90
3566;DHT22;1797;51.844;7.684;2022-12-07T18:41:33;4.00;99.90
3566;DHT22;1797;51.844;7.684;2022-12-07T18:43:59;4.00;99.90
3566;DHT22;1797;51.844;7.684;2022-12-07T18:46:25;4.00;99.90
3566;DHT22;1797;51.844;7.684;2022-12-07T18:48:51;4.00;99.90
3566;DHT22;1797;51.844;7.684;2022-12-07T18:51:18;4.00;99.90